Alconbury RAF, United Kingdom

4:48 PM BST on July 24, 2016 (GMT +0100)
Alconbury Weston | | Change Station

Elev 79 ft 52.37 °N, 0.28 °W | Updated 7 seconds ago

Mostly Cloudy
Mostly Cloudy
73.2 °F
Feels Like 76 °F
N
7.4
Wind Variable Wind from West
Gusts 9.8 mph

Today
High -- | Low -- °F
--% Chance of Precip.
Yesterday
High -- | Low -- °F
Precip. -- in
Pressure 30.01 in
Visibility 6.2 miles
Clouds Mostly Cloudy 4000 ft
Heat Index 76 °F
Dew Point 61 °F
Humidity 65%
Rainfall 0.00 in
Snow Depth Not available.
5:09 AM 9:04 PM
Waning Gibbous, 75% visible
METAR EGSC 241520Z 22009KT 9999 BKN040 24/15 Q1016
Pressure 30.01 in
Visibility 6.2 miles
Clouds Mostly Cloudy 4000 ft
Heat Index 76 °F
Dew Point 61 °F
Humidity 65%
Rainfall 0.00 in
Snow Depth Not available.
5:09 AM 9:04 PM
Waning Gibbous, 75% visible
METAR EGSC 241520Z 22009KT 9999 BKN040 24/15 Q1016

10-Day Weather Forecast

×

Almanac

Astronomy

Jul. 24, 2016 Rise Set
Actual Time
Civil Twilight
Nautical Twilight
Astronomical Twilight
Moon
Length of Visible Light
Length of Day
Tomorrow will be .
, % of the Moon is Illuminated

Today's Extremes

Country Highs Country Lows

Community

WunderPhotos

Upload Photos

1,927,092 photos uploaded!

WunderBlog® & News

Nearby

Air Quality

  Air Quality AQ Index Pollutant
Not available.

Snow Depth

Station Depth Elevation

Earthquake Activity

City Distance Mag. Time & Date
Minimum magnitude displayed is 2.5.

Coastal Water Temperatures

Place Temperature

Stations

Nearby Weather Stations

Station Location Temp. Windchill Dew Point Humidity Wind Precip. Elev Updated Type